This is the latest recevied weather packets stored in our database for station/object SP3OTE-2. If no packets are shown the sender has not sent any weather packets the latest 10 day(s).
| Time | Temp. | Humidity | Pressure | Rain* | Wind** | Luminosity | Snow |
|---|---|---|---|---|---|---|---|
| 1777764918 | 11.67° C | 56% | 1019.4 hPa | - | - | - | - |
| 1777764318 | 12.78° C | 54% | 1019.4 hPa | - | - | - | - |
| 1777763718 | 12.78° C | 54% | 1019.4 hPa | - | - | - | - |
| 1777763118 | 12.22° C | 55% | 1019.3 hPa | - | - | - | - |
| 1777762517 | 12.22° C | 55% | 1019.3 hPa | - | - | - | - |
| 1777761917 | 12.78° C | 54% | 1019.3 hPa | - | - | - | - |
| 1777761316 | 13.33° C | 51% | 1019.4 hPa | - | - | - | - |
| 1777760716 | 13.89° C | 50% | 1019.4 hPa | - | - | - | - |
| 1777760116 | 14.44° C | 49% | 1019.3 hPa | - | - | - | - |
| 1777759516 | 15° C | 48% | 1019.5 hPa | - | - | - | - |
| 1777758916 | 15.56° C | 48% | 1019.5 hPa | - | - | - | - |
| 1777758315 | 15.56° C | 47% | 1019.6 hPa | - | - | - | - |
| 1777757715 | 15.56° C | 47% | 1019.5 hPa | - | - | - | - |
| 1777757115 | 16.11° C | 47% | 1019.4 hPa | - | - | - | - |
| 1777756515 | 15.56° C | 48% | 1019.5 hPa | - | - | - | - |
| 1777755915 | 15° C | 49% | 1019.5 hPa | - | - | - | - |
| 1777755314 | 13.89° C | 55% | 1019.7 hPa | - | - | - | - |
| 1777754714 | 12.78° C | 56% | 1019.9 hPa | - | - | - | - |
| 1777754114 | 13.33° C | 56% | 1019.9 hPa | - | - | - | - |
| 1777753514 | 13.33° C | 54% | 1019.9 hPa | - | - | - | - |
| 1777752913 | 13.89° C | 54% | 1020 hPa | - | - | - | - |
| 1777752313 | 13.89° C | 53% | 1019.9 hPa | - | - | - | - |
| 1777751713 | 14.44° C | 52% | 1020 hPa | - | - | - | - |
| 1777751112 | 15° C | 50% | 1019.9 hPa | - | - | - | - |
| 1777750512 | 15.56° C | 50% | 1019.9 hPa | - | - | - | - |
* Rain since midnight (hover to see other rain measurements)
** Current wind speed in m/s (hover to see current wind gust speed)